Time;durP1;ratioP1;P1;durP2;ratioP2;P2;SDS_P1;SDS_P2;PMS_P1;PMS_P2;Temp;Humidity;BMP_temperature;BMP_pressure;BME280_temperature;BME280_humidity;BME280_pressure;Samples;Min_cycle;Max_cycle;Signal;HPM_P1;HPM_P2
2023/03/10 00:01:44;;;;;;;3.30;2.10;;;;;;;9.07;71.35;99818.63;107534;1238;73366;-72
2023/03/10 00:04:13;;;;;;;5.10;2.90;;;;;;;8.98;68.90;99815.37;107794;1239;72442;-71
2023/03/10 00:06:42;;;;;;;5.40;2.70;;;;;;;8.87;70.98;99812.79;107754;1249;70419;-73
2023/03/10 00:09:11;;;;;;;3.50;2.80;;;;;;;8.77;72.99;99811.85;107764;1240;72760;-71
2023/03/10 00:11:41;;;;;;;4.90;2.50;;;;;;;8.68;71.43;99811.71;107727;1238;59210;-76
2023/03/10 00:14:09;;;;;;;4.20;3.10;;;;;;;8.59;71.21;99818.98;107640;1240;61152;-74
2023/03/10 00:16:38;;;;;;;7.90;3.30;;;;;;;8.53;70.53;99816.19;107831;1237;62647;-74
2023/03/10 00:19:07;;;;;;;4.50;3.20;;;;;;;8.49;70.80;99811.23;107750;1245;60637;-77
2023/03/10 00:21:36;;;;;;;4.90;3.10;;;;;;;8.51;71.23;99809.75;107576;1237;70505;-80
2023/03/10 00:24:05;;;;;;;4.30;3.10;;;;;;;8.50;70.89;99816.05;107875;1249;73077;-76
2023/03/10 00:26:33;;;;;;;4.40;3.10;;;;;;;8.52;71.02;99820.24;107948;1249;61639;-76
2023/03/10 00:29:03;;;;;;;5.10;3.80;;;;;;;8.55;71.00;99819.33;108105;1238;58052;-76
2023/03/10 00:31:33;;;;;;;5.80;3.60;;;;;;;8.55;70.86;99819.98;107942;1239;62916;-75
2023/03/10 00:34:03;;;;;;;4.80;3.70;;;;;;;8.53;70.77;99818.94;107834;1239;61901;-75
2023/03/10 00:36:33;;;;;;;4.50;3.30;;;;;;;8.51;71.33;99819.28;107786;1245;68813;-75
2023/03/10 00:39:04;;;;;;;5.00;3.30;;;;;;;8.46;71.18;99821.75;107750;1249;63713;-78
2023/03/10 00:41:35;;;;;;;5.60;3.30;;;;;;;8.41;71.47;99815.58;108172;1236;61554;-79
2023/03/10 00:44:05;;;;;;;7.10;3.70;;;;;;;8.36;71.51;99816.82;108183;1237;58429;-79
2023/03/10 00:46:37;;;;;;;10.90;3.70;;;;;;;8.31;74.60;99819.78;107876;1241;64433;-75
2023/03/10 00:49:13;;;;;;;5.90;3.40;;;;;;;8.22;74.26;99819.42;107862;1245;63635;-73
2023/03/10 00:51:42;;;;;;;4.20;2.90;;;;;;;8.12;75.07;99824.15;107857;1238;69718;-72
2023/03/10 00:54:10;;;;;;;5.00;3.30;;;;;;;8.03;76.12;99821.86;107758;1246;62759;-70
2023/03/10 00:56:39;;;;;;;5.40;3.50;;;;;;;7.93;76.27;99821.44;107963;1238;58952;-71
2023/03/10 00:59:11;;;;;;;6.00;3.50;;;;;;;7.81;75.92;99824.79;107815;1239;59020;-71
2023/03/10 01:01:41;;;;;;;6.10;3.70;;;;;;;7.69;78.27;99832.27;107803;1244;73423;-72
2023/03/10 01:04:14;;;;;;;5.70;3.60;;;;;;;7.61;79.17;99836.48;107691;1248;61989;-71
2023/03/10 01:06:46;;;;;;;8.20;4.00;;;;;;;7.53;79.76;99834.31;107816;1248;59970;-72
2023/03/10 01:09:16;;;;;;;6.70;4.30;;;;;;;7.43;79.92;99834.67;107984;1249;63049;-71
2023/03/10 01:11:46;;;;;;;6.00;3.90;;;;;;;7.34;79.04;99830.31;107811;1242;61184;-72
2023/03/10 01:14:16;;;;;;;6.00;4.20;;;;;;;7.26;80.03;99831.40;107984;1242;57427;-72
2023/03/10 01:16:45;;;;;;;5.70;3.80;;;;;;;7.19;80.19;99829.66;107703;1241;73904;-74
2023/03/10 01:19:15;;;;;;;5.60;4.00;;;;;;;7.12;80.34;99839.13;107973;1249;72929;-74
2023/03/10 01:21:44;;;;;;;5.30;3.70;;;;;;;7.08;80.11;99844.80;107805;1239;70382;-72
2023/03/10 01:24:14;;;;;;;5.30;3.90;;;;;;;7.09;79.67;99853.61;107769;1249;73081;-72
2023/03/10 01:26:43;;;;;;;7.20;4.20;;;;;;;7.04;79.04;99856.36;107950;1239;59104;-71
2023/03/10 01:29:13;;;;;;;6.10;4.40;;;;;;;6.96;81.29;99856.61;108015;1237;61043;-72
2023/03/10 01:31:42;;;;;;;7.20;4.50;;;;;;;6.88;82.72;99854.20;107987;1239;72929;-71
2023/03/10 01:34:11;;;;;;;5.70;3.90;;;;;;;6.80;83.29;99853.38;107827;1239;61577;-71
2023/03/10 01:36:41;;;;;;;7.20;4.50;;;;;;;6.71;83.17;99849.33;107842;1249;60289;-71
2023/03/10 01:39:09;;;;;;;10.00;4.50;;;;;;;6.61;84.07;99851.26;110333;1238;73000;-72
2023/03/10 01:41:41;;;;;;;6.20;4.20;;;;;;;6.53;81.26;99850.75;110175;1239;62025;-74
2023/03/10 01:44:17;;;;;;;6.70;4.50;;;;;;;6.49;83.81;99857.44;110174;1236;62096;-74
2023/03/10 01:46:54;;;;;;;7.40;4.40;;;;;;;6.44;84.83;99862.33;110149;1238;63372;-73
2023/03/10 01:49:38;;;;;;;7.20;4.10;;;;;;;6.36;85.29;99866.79;110024;1241;60983;-73
2023/03/10 01:52:16;;;;;;;8.20;5.40;;;;;;;6.29;85.29;99864.20;110286;1236;70482;-73
2023/03/10 01:54:55;;;;;;;7.00;5.30;;;;;;;6.20;86.17;99864.96;110040;1238;74325;-75
2023/03/10 01:57:31;;;;;;;5.60;4.60;;;;;;;6.09;87.03;99869.65;110014;1241;62228;-76
2023/03/10 02:00:01;;;;;;;7.50;4.90;;;;;;;6.04;87.46;99874.01;110016;1241;57222;-75
2023/03/10 02:03:08;;;;;;;6.60;4.50;;;;;;;5.97;88.94;99874.48;110284;1235;72790;-74
2023/03/10 02:06:01;;;;;;;6.10;4.10;;;;;;;5.82;88.47;99868.33;110221;1238;70609;-75
2023/03/10 02:08:39;;;;;;;7.40;3.70;;;;;;;5.71;87.92;99878.05;110242;1235;59179;-78
2023/03/10 02:11:14;;;;;;;6.30;4.40;;;;;;;5.56;88.45;99882.83;110290;1235;74394;-75
2023/03/10 02:13:43;;;;;;;7.10;4.80;;;;;;;5.48;89.09;99883.34;110008;1241;57363;-75
2023/03/10 02:16:13;;;;;;;6.60;4.20;;;;;;;5.39;89.82;99885.63;110435;1235;57656;-75
2023/03/10 02:18:44;;;;;;;5.80;3.90;;;;;;;5.32;89.84;99885.09;109986;1242;62949;-75
2023/03/10 02:21:29;;;;;;;5.80;4.00;;;;;;;5.25;89.82;99887.75;110048;1241;60926;-70
2023/03/10 02:24:51;;;;;;;7.90;4.40;;;;;;;5.15;89.98;99880.10;110303;1238;68525;-69
2023/03/10 02:27:24;;;;;;;5.80;3.90;;;;;;;5.01;90.58;99880.63;110133;1239;62809;-73
2023/03/10 02:30:21;;;;;;;6.40;4.40;;;;;;;4.95;90.85;99883.09;110155;1238;57627;-73
2023/03/10 02:32:56;;;;;;;6.60;4.20;;;;;;;4.89;91.14;99885.15;110154;1239;57640;-72
2023/03/10 02:35:25;;;;;;;6.60;4.60;;;;;;;4.84;91.33;99889.63;110066;1238;62786;-72
2023/03/10 02:37:58;;;;;;;6.90;4.70;;;;;;;4.79;90.27;99893.02;110141;1239;71053;-72
2023/03/10 02:40:39;;;;;;;7.70;4.80;;;;;;;4.73;90.49;99894.91;109881;1243;60486;-72
2023/03/10 02:43:40;;;;;;;8.00;5.10;;;;;;;4.67;91.17;99891.52;110262;1238;63018;-72
2023/03/10 02:46:14;;;;;;;8.50;5.00;;;;;;;4.64;90.18;99894.27;110036;1238;62048;-72
2023/03/10 02:48:43;;;;;;;6.80;4.80;;;;;;;4.60;89.28;99899.35;110153;1239;61553;-71
2023/03/10 02:51:25;;;;;;;9.90;5.00;;;;;;;4.52;90.64;99901.41;110091;1236;73237;-74
2023/03/10 02:53:54;;;;;;;6.00;4.40;;;;;;;4.45;90.87;99907.52;110052;1241;61783;-73
2023/03/10 02:56:24;;;;;;;6.80;4.70;;;;;;;4.34;91.65;99918.48;109907;1236;70081;-75
2023/03/10 02:58:53;;;;;;;7.40;5.10;;;;;;;4.27;90.59;99919.47;110056;1241;65132;-75
2023/03/10 03:01:25;;;;;;;9.20;5.40;;;;;;;4.15;90.40;99922.02;110132;1239;57640;-74
2023/03/10 03:03:56;;;;;;;7.70;5.80;;;;;;;4.01;92.10;99926.13;110102;1236;60400;-74
2023/03/10 03:06:27;;;;;;;8.50;5.40;;;;;;;3.91;92.41;99931.67;109840;1237;72412;-72
2023/03/10 03:08:56;;;;;;;6.90;4.90;;;;;;;3.85;92.61;99933.76;109848;1238;61992;-73
2023/03/10 03:11:26;;;;;;;9.30;5.40;;;;;;;3.84;93.02;99939.86;109867;1236;70449;-74
2023/03/10 03:13:55;;;;;;;8.20;5.20;;;;;;;3.83;93.27;99943.89;110101;1238;63629;-73
2023/03/10 03:16:24;;;;;;;9.50;5.70;;;;;;;3.83;93.62;99945.90;109899;1239;61043;-75
2023/03/10 03:18:57;;;;;;;7.70;5.70;;;;;;;3.84;94.90;99949.64;109818;1237;60677;-73
2023/03/10 03:21:26;;;;;;;8.00;5.40;;;;;;;3.85;95.45;99954.22;109925;1238;74254;-72
2023/03/10 03:23:55;;;;;;;7.80;5.40;;;;;;;3.84;95.13;99959.45;109965;1239;72609;-74
2023/03/10 03:26:25;;;;;;;8.50;5.50;;;;;;;3.79;94.68;99958.54;109919;1236;70346;-75
2023/03/10 03:29:01;;;;;;;9.30;5.80;;;;;;;3.77;94.70;99957.97;109812;1238;74588;-73
2023/03/10 03:31:32;;;;;;;6.90;4.70;;;;;;;3.75;94.40;99960.70;109937;1239;62566;-73
2023/03/10 03:34:08;;;;;;;6.60;4.80;;;;;;;3.73;94.43;99962.67;109888;1242;57669;-73
2023/03/10 03:36:38;;;;;;;8.30;5.10;;;;;;;3.71;94.55;99967.44;109824;1237;73520;-73
2023/03/10 03:39:08;;;;;;;7.70;5.20;;;;;;;3.70;93.96;99962.66;109826;1241;71991;-74
2023/03/10 03:41:37;;;;;;;8.90;5.20;;;;;;;3.67;93.73;99955.41;110058;1238;60454;-74
2023/03/10 03:44:06;;;;;;;6.90;5.20;;;;;;;3.65;93.55;99951.41;110089;1239;72238;-74
2023/03/10 03:46:35;;;;;;;8.60;5.90;;;;;;;3.63;94.00;99950.16;109875;1240;57116;-74
2023/03/10 03:49:04;;;;;;;10.00;5.60;;;;;;;3.61;94.19;99949.40;109881;1241;57527;-73
2023/03/10 03:51:35;;;;;;;11.20;6.20;;;;;;;3.58;94.25;99946.28;110082;1238;73377;-75
2023/03/10 03:54:05;;;;;;;8.50;5.40;;;;;;;3.54;94.44;99945.98;109834;1237;72951;-75
2023/03/10 03:56:36;;;;;;;10.60;5.80;;;;;;;3.51;94.48;99949.27;109929;1237;60977;-74
2023/03/10 03:59:06;;;;;;;9.90;5.80;;;;;;;3.49;94.68;99955.08;109849;1241;73859;-74
2023/03/10 04:01:35;;;;;;;10.80;6.40;;;;;;;3.45;93.90;99956.80;110102;1237;61121;-73
2023/03/10 04:04:05;;;;;;;13.80;8.40;;;;;;;3.40;91.94;99956.74;109972;1239;61954;-73
2023/03/10 04:06:34;;;;;;;19.50;10.20;;;;;;;3.32;93.43;99957.55;109838;1237;359449;-75
2023/03/10 04:09:03;;;;;;;31.20;19.20;;;;;;;3.26;94.02;99959.21;109896;1237;62010;-76
2023/03/10 04:11:33;;;;;;;26.80;16.70;;;;;;;3.18;95.11;99958.80;109955;1237;69740;-78
2023/03/10 04:14:02;;;;;;;32.50;17.00;;;;;;;3.09;95.76;99947.05;109947;1238;74341;-78
2023/03/10 04:16:31;;;;;;;36.20;20.40;;;;;;;3.01;96.10;99943.52;109893;1242;62468;-75
2023/03/10 04:19:06;;;;;;;29.70;16.10;;;;;;;2.98;96.40;99941.67;109935;1236;61232;-73
2023/03/10 04:21:37;;;;;;;38.10;20.40;;;;;;;2.99;96.60;99944.71;110051;1238;63641;-76
2023/03/10 04:24:08;;;;;;;32.00;17.30;;;;;;;2.97;97.01;99947.70;109758;1236;72141;-75
2023/03/10 04:26:37;;;;;;;17.00;9.90;;;;;;;2.95;97.93;99952.98;110004;1236;59530;-79
2023/03/10 04:29:06;;;;;;;35.90;17.30;;;;;;;2.94;98.16;99955.77;109979;1236;62494;-76
2023/03/10 04:31:36;;;;;;;24.90;14.80;;;;;;;2.91;98.36;99957.48;109874;1240;57435;-75
2023/03/10 04:34:06;;;;;;;28.00;15.30;;;;;;;2.86;97.42;99957.06;110088;1237;61139;-75
2023/03/10 04:36:35;;;;;;;24.80;11.90;;;;;;;2.85;96.72;99960.38;110121;1237;73528;-75
2023/03/10 04:39:05;;;;;;;23.40;12.30;;;;;;;2.83;96.80;99960.80;110087;1237;71671;-73
2023/03/10 04:41:35;;;;;;;30.30;15.60;;;;;;;2.85;97.74;99964.33;110114;1236;71430;-74
2023/03/10 04:44:05;;;;;;;16.80;9.10;;;;;;;2.87;97.98;99967.80;110114;1236;63805;-77
2023/03/10 04:46:35;;;;;;;14.00;8.00;;;;;;;2.90;97.71;99972.17;110039;1241;57690;-73
2023/03/10 04:49:04;;;;;;;13.20;7.60;;;;;;;2.91;97.73;99976.71;110054;1237;57731;-77
2023/03/10 04:51:33;;;;;;;13.50;8.00;;;;;;;2.96;97.39;99978.08;110087;1235;70944;-81
2023/03/10 04:54:03;;;;;;;15.00;9.10;;;;;;;3.00;99.28;99979.58;110089;1235;72167;-75
2023/03/10 04:56:32;;;;;;;13.40;8.60;;;;;;;3.05;99.97;99982.56;110253;1235;70036;-78
2023/03/10 04:59:01;;;;;;;16.60;9.60;;;;;;;3.07;99.15;99987.23;110250;1235;74110;-71
2023/03/10 05:01:31;;;;;;;14.80;9.20;;;;;;;3.09;98.64;99994.69;110073;1240;57652;-73
2023/03/10 05:04:05;;;;;;;16.00;9.90;;;;;;;3.16;98.70;100003.79;110281;1235;60914;-74
2023/03/10 05:06:34;;;;;;;15.30;8.40;;;;;;;3.28;99.42;100008.70;110246;1235;70976;-71
2023/03/10 05:09:12;;;;;;;19.10;9.30;;;;;;;3.39;98.71;100007.59;110086;1235;70410;-77
2023/03/10 05:11:40;;;;;;;14.00;7.40;;;;;;;3.40;97.17;100007.71;110292;1235;70173;-74
2023/03/10 05:14:11;;;;;;;11.50;7.30;;;;;;;3.51;97.10;100017.82;110097;1235;74456;-72
2023/03/10 05:16:40;;;;;;;15.20;8.00;;;;;;;3.57;96.09;100018.48;110126;1240;57236;-77
2023/03/10 05:19:09;;;;;;;14.70;8.50;;;;;;;3.64;97.03;100013.65;110253;1235;57083;-76
2023/03/10 05:21:38;;;;;;;13.90;8.00;;;;;;;3.70;98.21;100015.00;110164;1238;64013;-73
2023/03/10 05:24:07;;;;;;;16.10;9.00;;;;;;;3.82;98.65;100022.82;110138;1238;60895;-74
2023/03/10 05:26:36;;;;;;;19.10;9.70;;;;;;;3.93;98.80;100024.39;110153;1236;59998;-77
2023/03/10 05:29:05;;;;;;;16.40;8.80;;;;;;;4.05;98.78;100025.50;110159;1236;63280;-82
2023/03/10 05:31:46;;;;;;;16.80;8.90;;;;;;;4.13;97.63;100029.67;110145;1239;62103;-82
2023/03/10 05:34:22;;;;;;;17.90;10.00;;;;;;;4.21;96.85;100032.65;110168;1239;57736;-78
2023/03/10 05:36:52;;;;;;;19.50;10.10;;;;;;;4.33;96.42;100033.88;110022;1238;73495;-77
2023/03/10 05:39:21;;;;;;;22.20;10.80;;;;;;;4.42;95.45;100031.10;110088;1235;61304;-77
2023/03/10 05:41:51;;;;;;;24.00;10.90;;;;;;;4.55;95.09;100027.95;110215;1236;70402;-77
2023/03/10 05:44:21;;;;;;;33.10;11.70;;;;;;;4.67;94.79;100032.08;110207;1235;63699;-77
2023/03/10 05:46:51;;;;;;;42.30;23.10;;;;;;;4.75;93.62;100037.65;110215;1238;57046;-78
2023/03/10 05:49:20;;;;;;;52.60;36.80;;;;;;;4.79;93.48;100039.29;110097;1241;57739;-77
2023/03/10 05:51:49;;;;;;;65.90;51.60;;;;;;;4.91;92.84;100038.81;110260;1235;63497;-77
2023/03/10 05:54:18;;;;;;;58.10;43.30;;;;;;;5.02;92.12;100032.77;110294;1235;60828;-78
2023/03/10 05:56:47;;;;;;;51.50;31.60;;;;;;;5.16;92.20;100032.29;110315;1235;60664;-80
2023/03/10 05:59:16;;;;;;;56.70;27.40;;;;;;;5.30;92.34;100027.48;110324;1238;62413;-77
2023/03/10 06:01:45;;;;;;;53.60;24.00;;;;;;;5.45;92.02;100023.56;110248;1238;57496;-78
2023/03/10 06:04:14;;;;;;;33.40;17.50;;;;;;;5.61;91.16;100022.80;110253;1235;57688;-75
2023/03/10 06:06:43;;;;;;;29.90;16.60;;;;;;;5.77;90.53;100022.08;110337;1238;62985;-76
2023/03/10 06:09:12;;;;;;;36.70;17.90;;;;;;;5.92;89.06;100021.02;110349;1238;72821;-76
2023/03/10 06:11:40;;;;;;;42.50;15.70;;;;;;;6.10;88.60;100020.88;110096;1235;70108;-74
2023/03/10 06:14:09;;;;;;;33.50;16.40;;;;;;;6.28;88.39;100018.52;110324;1235;63837;-77
2023/03/10 06:16:38;;;;;;;39.70;16.00;;;;;;;6.46;87.91;100019.54;109940;1239;57237;-79
2023/03/10 06:19:09;;;;;;;35.90;15.50;;;;;;;6.64;87.60;100017.36;110276;1239;57647;-78
2023/03/10 06:21:38;;;;;;;43.70;16.60;;;;;;;6.85;86.98;100022.48;110006;1239;72168;-75
2023/03/10 06:24:07;;;;;;;37.50;16.80;;;;;;;7.02;86.03;100025.81;110095;1238;72662;-77
2023/03/10 06:26:35;;;;;;;38.20;18.30;;;;;;;7.22;85.25;100026.22;110242;1236;70658;-75
2023/03/10 06:29:05;;;;;;;39.00;16.50;;;;;;;7.36;84.70;100030.21;110045;1238;63816;-76
2023/03/10 06:31:34;;;;;;;30.60;16.00;;;;;;;7.55;84.20;100031.66;109872;1239;61058;-76
2023/03/10 06:34:03;;;;;;;44.50;16.70;;;;;;;7.73;83.70;100031.96;110108;1238;61838;-76
2023/03/10 06:36:32;;;;;;;35.90;16.30;;;;;;;7.88;82.75;100032.11;110054;1239;73331;-75
2023/03/10 06:39:01;;;;;;;48.20;16.80;;;;;;;8.10;82.03;100039.84;110203;1238;71369;-73
2023/03/10 06:41:30;;;;;;;32.40;14.00;;;;;;;8.28;82.24;100040.95;110018;1236;70997;-77
2023/03/10 06:43:58;;;;;;;29.80;14.60;;;;;;;8.51;82.53;100035.48;110266;1238;74167;-76
2023/03/10 06:46:28;;;;;;;29.10;15.20;;;;;;;8.67;81.33;100030.33;110280;1239;57205;-75
2023/03/10 06:48:57;;;;;;;29.20;14.50;;;;;;;8.84;80.81;100029.39;110114;1236;60596;-76
2023/03/10 06:51:25;;;;;;;26.50;13.80;;;;;;;8.98;79.62;100027.60;110174;1237;73925;-75
2023/03/10 06:53:56;;;;;;;21.40;12.70;;;;;;;9.12;79.45;100029.12;110175;1237;61349;-76
2023/03/10 06:56:25;;;;;;;23.70;12.90;;;;;;;9.30;79.01;100034.36;110118;1237;69734;-79
2023/03/10 06:58:53;;;;;;;22.20;12.30;;;;;;;9.43;78.51;100032.31;110096;1238;74222;-78
2023/03/10 07:01:34;;;;;;;24.00;13.10;;;;;;;9.56;78.55;100026.23;110239;1238;57792;-76
2023/03/10 07:04:03;;;;;;;32.10;14.30;;;;;;;9.75;76.97;100024.68;110258;1236;61223;-74
2023/03/10 07:06:32;;;;;;;19.40;11.30;;;;;;;9.89;76.61;100021.83;110256;1237;73931;-73
2023/03/10 07:09:01;;;;;;;20.30;10.10;;;;;;;10.01;75.30;100028.38;110106;1238;72001;-76
2023/03/10 07:11:30;;;;;;;22.90;9.40;;;;;;;10.08;74.11;100031.66;110126;1237;71432;-74
2023/03/10 07:13:59;;;;;;;21.30;9.80;;;;;;;10.23;74.39;100033.91;110098;1237;73907;-74
2023/03/10 07:16:28;;;;;;;15.60;9.70;;;;;;;10.35;73.46;100034.88;110147;1238;57702;-75
2023/03/10 07:18:57;;;;;;;19.20;9.50;;;;;;;10.44;72.32;100033.45;109976;1237;61529;-73
2023/03/10 07:21:26;;;;;;;22.90;10.30;;;;;;;10.55;72.33;100023.10;109984;1239;62925;-76
2023/03/10 07:23:55;;;;;;;16.50;9.70;;;;;;;10.68;71.13;100024.69;109964;1239;61672;-78
2023/03/10 07:26:24;;;;;;;16.80;9.00;;;;;;;10.74;70.75;100025.39;110161;1238;60172;-75
2023/03/10 07:28:53;;;;;;;18.20;9.30;;;;;;;10.85;70.69;100028.98;110036;1239;72698;-76
2023/03/10 07:31:22;;;;;;;16.60;8.90;;;;;;;11.00;69.96;100023.83;110217;1237;60680;-77
2023/03/10 07:33:51;;;;;;;16.00;9.20;;;;;;;11.00;69.48;100030.81;109972;1241;57515;-76
2023/03/10 07:36:21;;;;;;;16.10;9.70;;;;;;;11.18;69.21;100027.00;110220;1238;73353;-77
2023/03/10 07:38:50;;;;;;;17.50;9.90;;;;;;;11.24;68.40;100023.35;110102;1239;71705;-74
2023/03/10 07:41:20;;;;;;;15.70;9.40;;;;;;;11.42;68.20;100027.91;110151;1238;70018;-76
2023/03/10 07:43:53;;;;;;;16.90;8.50;;;;;;;11.38;66.27;100029.61;110082;1238;63610;-75
2023/03/10 07:46:22;;;;;;;16.10;9.50;;;;;;;11.54;66.07;100029.81;110106;1239;57752;-75
2023/03/10 07:48:52;;;;;;;21.10;11.30;;;;;;;11.54;65.62;100024.95;110025;1237;60477;-78
2023/03/10 07:51:21;;;;;;;22.00;10.90;;;;;;;11.61;66.43;100030.08;110100;1239;63411;-77
2023/03/10 07:53:51;;;;;;;16.90;10.00;;;;;;;11.72;65.86;100036.12;110123;1239;60876;-76
2023/03/10 07:56:21;;;;;;;13.10;7.60;;;;;;;11.54;64.86;100043.42;109901;1237;59890;-75
2023/03/10 07:58:50;;;;;;;12.60;7.30;;;;;;;11.48;64.96;100045.02;110021;1242;62449;-77
2023/03/10 08:01:21;;;;;;;14.90;8.80;;;;;;;11.56;64.67;100044.99;109986;1238;57157;-75
2023/03/10 08:03:49;;;;;;;18.80;9.30;;;;;;;11.64;64.64;100031.20;109878;1236;60736;-73
2023/03/10 08:06:23;;;;;;;16.20;9.10;;;;;;;11.88;64.47;100032.27;110263;1237;73685;-76
2023/03/10 08:08:54;;;;;;;15.30;8.00;;;;;;;12.08;63.55;100029.42;109898;1238;72242;-74
2023/03/10 08:11:26;;;;;;;24.00;8.90;;;;;;;12.26;62.82;100028.02;109956;1238;69997;-75
2023/03/10 08:13:55;;;;;;;13.70;7.90;;;;;;;12.45;61.96;100027.66;109771;1238;74240;-75
2023/03/10 08:16:24;;;;;;;26.00;8.70;;;;;;;12.56;61.47;100024.39;109970;1238;57647;-76
2023/03/10 08:18:53;;;;;;;13.40;8.30;;;;;;;12.68;60.70;100019.33;109959;1241;60823;-77
2023/03/10 08:21:22;;;;;;;15.80;7.70;;;;;;;12.69;60.65;100012.70;110249;1238;63463;-76
2023/03/10 08:23:51;;;;;;;12.70;7.60;;;;;;;12.88;60.58;100008.88;110139;1237;71420;-75
2023/03/10 08:26:20;;;;;;;12.60;7.40;;;;;;;13.06;60.17;100007.57;110041;1237;61344;-78
2023/03/10 08:28:49;;;;;;;14.60;8.10;;;;;;;13.24;60.33;100001.34;110139;1238;73806;-77
2023/03/10 08:31:19;;;;;;;16.50;7.80;;;;;;;13.43;60.61;100003.16;110255;1238;60824;-74
2023/03/10 08:33:49;;;;;;;14.40;8.10;;;;;;;13.47;59.65;100002.43;110018;1238;57651;-76
2023/03/10 08:36:23;;;;;;;13.80;8.10;;;;;;;13.60;58.70;99999.27;110038;1242;61922;-75
2023/03/10 08:38:54;;;;;;;19.10;9.60;;;;;;;13.54;58.48;99993.56;109955;1238;72225;-74
2023/03/10 08:41:30;;;;;;;17.00;9.00;;;;;;;13.69;58.62;99993.46;109779;1237;71047;-74
2023/03/10 08:44:00;;;;;;;25.00;10.00;;;;;;;13.83;58.39;99994.39;109759;1242;63652;-75
2023/03/10 08:46:31;;;;;;;15.10;7.80;;;;;;;13.88;57.82;100000.41;109983;1239;57733;-74
2023/03/10 08:49:00;;;;;;;18.40;8.20;;;;;;;14.06;57.12;100001.31;109876;1238;61162;-75
2023/03/10 08:51:29;;;;;;;11.80;7.50;;;;;;;14.13;56.40;100001.45;110005;1239;63404;-74
2023/03/10 08:53:59;;;;;;;13.80;7.40;;;;;;;14.12;56.34;99999.29;109981;1239;61580;-79
2023/03/10 08:56:28;;;;;;;11.40;7.20;;;;;;;14.09;56.72;99998.25;109888;1236;70423;-74
2023/03/10 08:59:00;;;;;;;15.60;7.70;;;;;;;14.27;56.83;100003.10;110108;1238;74407;-75
2023/03/10 09:01:32;;;;;;;11.40;5.90;;;;;;;14.52;55.48;100005.89;110222;1239;61590;-76
2023/03/10 09:04:04;;;;;;;9.90;6.10;;;;;;;14.33;54.74;100002.46;109959;1239;57795;-76
2023/03/10 09:06:34;;;;;;;9.60;6.00;;;;;;;14.36;55.42;100000.25;109856;1240;73402;-78
2023/03/10 09:09:06;;;;;;;15.60;7.30;;;;;;;14.72;55.19;99989.84;109743;1241;63098;-76
2023/03/10 09:11:39;;;;;;;13.90;7.60;;;;;;;14.83;54.69;99983.74;109902;1237;69758;-73
2023/03/10 09:14:09;;;;;;;10.70;6.00;;;;;;;14.84;54.61;99986.71;109990;1236;63303;-76
2023/03/10 09:16:39;;;;;;;10.10;6.60;;;;;;;15.08;53.86;99982.95;109933;1241;57117;-74
2023/03/10 09:19:08;;;;;;;12.40;7.00;;;;;;;15.17;53.26;99980.46;110009;1238;60416;-75
2023/03/10 09:21:37;;;;;;;9.00;6.20;;;;;;;15.11;53.76;99973.23;110024;1238;73960;-74
2023/03/10 09:24:06;;;;;;;10.10;5.00;;;;;;;15.16;53.40;99973.02;110181;1238;61257;-75
2023/03/10 09:26:35;;;;;;;12.80;5.80;;;;;;;15.28;53.06;99967.05;110217;1239;59951;-74
2023/03/10 09:29:04;;;;;;;8.90;5.70;;;;;;;15.49;52.62;99962.98;110180;1239;63227;-73
2023/03/10 09:31:36;;;;;;;11.30;4.70;;;;;;;15.72;52.14;99966.57;110310;1239;57656;-78
2023/03/10 09:34:07;;;;;;;6.60;4.10;;;;;;;15.86;50.53;99960.67;110191;1242;60327;-74
2023/03/10 09:36:36;;;;;;;8.90;3.70;;;;;;;16.01;50.62;99957.79;110311;1238;74373;-76
2023/03/10 09:39:04;;;;;;;12.70;4.30;;;;;;;16.06;49.31;99954.27;110319;1238;72630;-78
2023/03/10 09:41:52;;;;;;;9.20;4.80;;;;;;;15.82;49.50;99951.36;110172;1238;71146;-76
2023/03/10 09:44:49;;;;;;;5.10;2.80;;;;;;;15.93;48.34;99946.75;110173;1239;73636;-75
2023/03/10 09:47:24;;;;;;;7.20;4.40;;;;;;;16.27;47.08;99935.68;110223;1239;59415;-78
2023/03/10 09:50:36;;;;;;;9.20;4.00;;;;;;;16.31;46.90;99929.77;110099;1236;60369;-74
2023/03/10 09:53:38;;;;;;;7.10;4.00;;;;;;;16.21;47.37;99922.65;110065;1242;73918;-77
2023/03/10 09:56:15;;;;;;;7.40;4.00;;;;;;;16.32;46.85;99919.10;110265;1238;61659;-76
2023/03/10 09:59:00;;;;;;;5.10;3.10;;;;;;;16.19;46.13;99916.73;110070;1242;59291;-76
2023/03/10 10:01:32;;;;;;;7.40;3.30;;;;;;;16.32;45.58;99909.85;110284;1238;73862;-74
2023/03/10 10:04:10;;;;;;;5.80;3.20;;;;;;;16.62;45.16;99905.36;110111;1239;61399;-74
2023/03/10 10:06:44;;;;;;;7.50;3.30;;;;;;;16.76;44.54;99897.11;110293;1237;61738;-74
2023/03/10 10:09:41;;;;;;;7.20;3.30;;;;;;;16.64;44.53;99896.47;110268;1239;63321;-76
2023/03/10 10:12:22;;;;;;;7.30;3.20;;;;;;;16.73;44.49;99885.80;110182;1239;71522;-76
2023/03/10 10:15:00;;;;;;;9.70;3.40;;;;;;;16.95;44.15;99881.40;110174;1237;60328;-73
2023/03/10 10:17:44;;;;;;;4.80;2.80;;;;;;;17.09;43.98;99880.09;110199;1236;63344;-75
2023/03/10 10:21:17;;;;;;;4.90;2.90;;;;;;;17.46;41.90;99875.84;110307;1239;59349;-73
2023/03/10 10:23:52;;;;;;;11.30;4.10;;;;;;;17.45;42.13;99870.98;110109;1237;57682;-75
2023/03/10 10:26:25;;;;;;;6.10;3.10;;;;;;;17.50;41.45;99869.02;110012;1239;73496;-77
2023/03/10 10:28:59;;;;;;;6.30;3.40;;;;;;;17.49;41.77;99873.58;110022;1238;73304;-75
2023/03/10 10:31:30;;;;;;;7.00;3.00;;;;;;;17.71;41.42;99868.21;110261;1238;70986;-75
2023/03/10 10:34:19;;;;;;;8.60;3.40;;;;;;;17.96;40.82;99859.73;110000;1236;74233;-75
2023/03/10 10:36:55;;;;;;;6.10;2.60;;;;;;;18.35;39.90;99854.18;110123;1239;57677;-74
2023/03/10 10:39:31;;;;;;;6.30;3.00;;;;;;;18.54;39.24;99855.18;110051;1238;60504;-75
2023/03/10 10:42:23;;;;;;;6.10;3.20;;;;;;;18.49;40.22;99846.56;110317;1236;65231;-75
2023/03/10 10:45:05;;;;;;;5.80;2.80;;;;;;;18.98;38.84;99838.38;110165;1237;61993;-79
2023/03/10 10:47:45;;;;;;;7.10;3.20;;;;;;;19.06;38.40;99841.69;110161;1236;70198;-77
2023/03/10 10:50:27;;;;;;;4.70;3.00;;;;;;;19.14;38.11;99838.42;110134;1239;63707;-77
2023/03/10 10:53:33;;;;;;;6.20;2.90;;;;;;;19.06;38.55;99830.48;109852;1242;60434;-77
2023/03/10 10:56:13;;;;;;;7.80;3.40;;;;;;;18.68;38.99;99823.27;109650;1238;60623;-75
2023/03/10 10:59:20;;;;;;;6.30;3.50;;;;;;;18.76;38.94;99816.38;110013;1238;64017;-75
2023/03/10 11:02:01;;;;;;;9.60;4.10;;;;;;;18.97;39.06;99810.04;110102;1237;72220;-77
2023/03/10 11:04:44;;;;;;;9.00;3.30;;;;;;;18.95;39.28;99806.83;110129;1237;60301;-77
2023/03/10 11:07:26;;;;;;;7.40;2.90;;;;;;;18.53;39.08;99804.39;110054;1236;73779;-78
2023/03/10 11:09:56;;;;;;;8.20;3.30;;;;;;;18.67;39.59;99800.43;110007;1239;62528;-77
2023/03/10 11:12:55;;;;;;;6.20;3.20;;;;;;;19.07;39.11;99799.59;109997;1237;60729;-78
2023/03/10 11:15:36;;;;;;;5.00;2.70;;;;;;;18.90;38.55;99792.79;109960;1237;74123;-75
2023/03/10 11:18:27;;;;;;;9.50;3.20;;;;;;;19.07;39.31;99794.58;109951;1237;70650;-77
2023/03/10 11:21:13;;;;;;;9.80;3.40;;;;;;;19.03;37.97;99788.36;110143;1237;70102;-77
2023/03/10 11:23:56;;;;;;;4.90;2.60;;;;;;;18.93;38.05;99787.27;109826;1236;74158;-77
2023/03/10 11:26:43;;;;;;;9.70;3.30;;;;;;;18.65;38.34;99783.36;110059;1238;61221;-75
2023/03/10 11:29:25;;;;;;;9.70;3.60;;;;;;;18.26;39.15;99777.64;110114;1238;61562;-80
2023/03/10 11:32:09;;;;;;;8.80;3.60;;;;;;;18.14;39.39;99772.60;110109;1238;74063;-76
2023/03/10 11:35:44;;;;;;;7.30;3.70;;;;;;;17.97;40.14;99765.29;109966;1237;71829;-80
2023/03/10 11:38:27;;;;;;;5.60;3.30;;;;;;;18.07;39.75;99764.25;110123;1236;70834;-76
2023/03/10 11:41:05;;;;;;;7.60;3.00;;;;;;;18.05;39.66;99759.58;110115;1237;62812;-76
2023/03/10 11:44:04;;;;;;;5.60;2.70;;;;;;;17.79;40.16;99758.27;110017;1238;57214;-75
2023/03/10 11:46:39;;;;;;;5.50;2.90;;;;;;;17.88;39.92;99743.52;110089;1239;61192;-77
2023/03/10 11:49:13;;;;;;;8.30;3.10;;;;;;;17.63;40.05;99743.23;110200;1238;73994;-77
2023/03/10 11:51:54;;;;;;;5.40;3.30;;;;;;;17.87;39.70;99746.40;109981;1238;61172;-77